createdAt,value
2018-04-10T00:00:37.378Z,11.70
2018-04-10T00:01:37.298Z,9.10
2018-04-10T00:02:37.302Z,12.30
2018-04-10T00:03:37.294Z,11.20
2018-04-10T00:04:37.281Z,11.70
2018-04-10T00:05:37.278Z,10.50
2018-04-10T00:06:37.275Z,10.60
2018-04-10T00:07:37.276Z,12.20
2018-04-10T00:08:37.267Z,11.60
2018-04-10T00:09:37.263Z,11.40
2018-04-10T00:10:37.256Z,12.30
2018-04-10T00:11:37.255Z,11.30
2018-04-10T00:12:37.248Z,13.20
2018-04-10T00:13:37.242Z,11.00
2018-04-10T00:14:37.237Z,12.80
2018-04-10T00:15:37.233Z,15.10
2018-04-10T00:16:37.227Z,11.20
2018-04-10T00:17:37.225Z,11.30
2018-04-10T00:18:37.217Z,11.60
2018-04-10T00:19:37.220Z,10.80
2018-04-10T00:20:37.201Z,13.50
2018-04-10T00:21:37.205Z,14.00
2018-04-10T00:22:37.208Z,13.20
2018-04-10T00:23:37.195Z,15.50
2018-04-10T00:24:37.192Z,15.70
2018-04-10T00:25:37.186Z,15.90
2018-04-10T00:26:37.179Z,12.50
2018-04-10T00:27:37.176Z,12.30
2018-04-10T00:28:37.179Z,14.50
2018-04-10T00:29:37.167Z,12.90
2018-04-10T00:30:37.162Z,12.90
2018-04-10T00:31:37.154Z,13.20
2018-04-10T00:32:37.145Z,11.20
2018-04-10T00:33:37.142Z,12.40
2018-04-10T00:34:37.150Z,12.10
2018-04-10T00:35:37.135Z,13.70
2018-04-10T00:36:37.130Z,12.50
2018-04-10T00:37:37.117Z,12.50
2018-04-10T00:38:37.122Z,11.40
2018-04-10T00:39:37.108Z,12.70
2018-04-10T00:40:37.109Z,10.30
2018-04-10T00:41:37.111Z,15.40
2018-04-10T00:42:37.113Z,10.10
2018-04-10T00:43:37.086Z,10.80
2018-04-10T00:44:37.089Z,11.90
2018-04-10T00:45:37.202Z,11.00
2018-04-10T00:46:37.086Z,11.00
2018-04-10T00:47:37.073Z,10.80
2018-04-10T00:48:37.072Z,12.50
2018-04-10T00:49:37.058Z,9.60
2018-04-10T00:50:37.068Z,12.30
2018-04-10T00:51:37.050Z,9.90
2018-04-10T00:52:37.042Z,10.10
2018-04-10T00:53:37.043Z,10.70
2018-04-10T00:54:37.035Z,11.70
2018-04-10T00:55:37.034Z,11.50
2018-04-10T00:56:37.026Z,12.90
2018-04-10T00:57:37.034Z,10.80
2018-04-10T00:58:37.013Z,11.80
2018-04-10T00:59:37.023Z,15.30
2018-04-10T01:00:37.014Z,11.30
2018-04-10T01:01:37.035Z,13.60
2018-04-10T01:02:36.990Z,13.00
2018-04-10T01:03:36.993Z,11.80
2018-04-10T01:04:36.991Z,13.70
2018-04-10T01:05:36.977Z,13.30
2018-04-10T01:06:36.971Z,12.00
2018-04-10T01:07:36.982Z,12.60
2018-04-10T01:08:36.967Z,12.70
2018-04-10T01:09:36.973Z,13.10
2018-04-10T01:10:36.956Z,10.70
2018-04-10T01:11:36.949Z,11.20
2018-04-10T01:12:36.944Z,12.20
2018-04-10T01:13:36.941Z,11.60
2018-04-10T01:14:36.941Z,13.20
2018-04-10T01:15:36.935Z,10.90
2018-04-10T01:16:36.931Z,11.70
2018-04-10T01:17:36.925Z,13.20
2018-04-10T01:18:36.911Z,12.90
2018-04-10T01:19:36.913Z,12.20
2018-04-10T01:20:36.914Z,13.90
2018-04-10T01:21:36.901Z,11.80
2018-04-10T01:22:36.930Z,11.60
2018-04-10T01:23:36.893Z,14.20
2018-04-10T01:24:36.894Z,11.10
2018-04-10T01:25:36.883Z,11.70
2018-04-10T01:26:36.881Z,12.70
2018-04-10T01:27:36.873Z,11.80
2018-04-10T01:28:36.869Z,11.40
2018-04-10T01:29:36.871Z,10.60
2018-04-10T02:02:00.219Z,10.90
2018-04-10T02:03:00.188Z,11.90
2018-04-10T02:04:53.119Z,15.00
2018-04-10T02:05:53.096Z,13.20
2018-04-10T02:07:46.046Z,13.10
2018-04-10T02:08:46.000Z,14.30
2018-04-10T02:10:38.963Z,14.40
2018-04-10T02:11:38.944Z,13.10
2018-04-10T02:13:31.911Z,12.20
2018-04-10T02:14:31.865Z,14.90
2018-04-10T02:16:24.776Z,14.10
2018-04-10T02:17:24.786Z,14.00
2018-04-10T02:19:17.701Z,13.50
2018-04-10T02:20:17.668Z,12.20
2018-04-10T02:21:17.667Z,14.20
2018-04-10T02:22:17.651Z,12.00
2018-04-10T02:23:17.649Z,13.60
2018-04-10T02:24:17.651Z,15.90
2018-04-10T02:25:17.644Z,14.30
2018-04-10T02:26:17.639Z,13.50
2018-04-10T02:27:17.632Z,12.40
2018-04-10T02:28:17.629Z,14.30
2018-04-10T02:29:17.611Z,11.70
2018-04-10T02:30:17.613Z,14.50
2018-04-10T02:31:17.604Z,12.40
2018-04-10T02:32:17.602Z,11.70
2018-04-10T02:33:17.598Z,11.70
2018-04-10T02:34:17.597Z,13.20
2018-04-10T02:35:17.589Z,11.80
2018-04-10T02:36:17.578Z,12.80
2018-04-10T02:37:17.578Z,11.40
2018-04-10T02:38:17.576Z,14.90
2018-04-10T02:39:17.565Z,13.60
2018-04-10T02:40:17.561Z,11.50
2018-04-10T02:41:17.576Z,10.20
2018-04-10T02:42:17.553Z,14.40
2018-04-10T02:43:17.552Z,12.40
2018-04-10T02:44:17.550Z,13.30
2018-04-10T02:45:17.539Z,11.30
2018-04-10T02:46:17.528Z,12.30
2018-04-10T02:47:17.524Z,10.50
2018-04-10T02:48:17.523Z,11.90
2018-04-10T02:49:17.513Z,14.10
2018-04-10T02:50:17.511Z,12.90
2018-04-10T02:51:17.513Z,13.70
2018-04-10T02:52:17.503Z,12.60
2018-04-10T02:53:17.489Z,11.10
2018-04-10T02:54:17.490Z,11.30
2018-04-10T02:55:17.481Z,14.50
2018-04-10T02:56:17.477Z,15.50
2018-04-10T02:57:17.479Z,13.30
2018-04-10T02:58:17.467Z,12.40
2018-04-10T02:59:17.455Z,13.90
2018-04-10T03:00:17.461Z,13.70
2018-04-10T03:01:17.454Z,13.30
2018-04-10T03:02:17.460Z,13.50
2018-04-10T03:03:17.476Z,13.40
2018-04-10T03:04:17.439Z,11.50
2018-04-10T03:05:17.436Z,14.20
2018-04-10T03:06:17.429Z,14.20
2018-04-10T03:07:17.423Z,11.00
2018-04-10T03:08:17.416Z,10.60
2018-04-10T03:09:17.409Z,15.30
2018-04-10T03:10:17.406Z,10.40
2018-04-10T03:11:17.406Z,13.50
2018-04-10T03:12:17.406Z,14.40
2018-04-10T03:13:17.390Z,14.00
2018-04-10T03:14:17.386Z,10.90
2018-04-10T03:15:17.382Z,11.50
2018-04-10T03:16:17.376Z,13.00
2018-04-10T03:17:17.363Z,11.00
2018-04-10T03:18:17.362Z,12.00
2018-04-10T03:19:17.362Z,11.10
2018-04-10T03:20:17.352Z,11.70
2018-04-10T03:21:17.343Z,15.20
2018-04-10T03:22:17.339Z,11.20
2018-04-10T03:23:17.349Z,11.00
2018-04-10T03:24:17.339Z,14.60
2018-04-10T03:25:17.325Z,12.30
2018-04-10T03:26:17.316Z,13.10
2018-04-10T03:27:17.323Z,14.00
2018-04-10T03:28:17.320Z,11.40
2018-04-10T03:29:17.307Z,12.40
2018-04-10T03:30:17.296Z,11.50
2018-04-10T03:31:17.296Z,13.70
2018-04-10T03:32:17.286Z,11.90
2018-04-10T03:33:17.280Z,13.80
2018-04-10T03:34:17.273Z,11.90
2018-04-10T03:35:17.292Z,12.20
2018-04-10T03:36:17.272Z,14.90
2018-04-10T03:37:17.260Z,14.30
2018-04-10T03:38:17.250Z,15.70
2018-04-10T03:39:17.246Z,12.70
2018-04-10T03:40:17.242Z,14.30
2018-04-10T03:41:17.243Z,11.50
2018-04-10T03:42:17.236Z,12.20
2018-04-10T03:43:17.218Z,13.10
2018-04-10T03:44:17.216Z,12.90
2018-04-10T03:45:17.207Z,11.60
2018-04-10T03:46:17.205Z,13.50
2018-04-10T03:47:17.196Z,14.40
2018-04-10T03:48:17.245Z,13.50
2018-04-10T03:49:17.180Z,13.40
2018-04-10T03:50:17.185Z,14.00
2018-04-10T03:51:17.224Z,15.20
2018-04-10T03:52:17.169Z,13.30
2018-04-10T03:53:17.159Z,13.70
2018-04-10T03:54:17.172Z,13.00
2018-04-10T03:55:17.173Z,14.20
2018-04-10T03:56:17.136Z,13.90
2018-04-10T03:57:17.133Z,13.80
2018-04-10T03:58:17.137Z,13.80
2018-04-10T03:59:17.126Z,15.10
2018-04-10T04:00:17.119Z,12.00
2018-04-10T04:01:17.118Z,15.00
2018-04-10T04:02:17.098Z,12.50
2018-04-10T04:03:17.103Z,13.20
2018-04-10T04:04:17.098Z,16.80
2018-04-10T04:05:17.097Z,13.40
2018-04-10T04:06:17.095Z,16.50
2018-04-10T04:07:17.077Z,14.10
2018-04-10T04:08:17.065Z,16.00
2018-04-10T04:09:17.054Z,14.90
2018-04-10T04:10:17.056Z,14.10
2018-04-10T04:11:17.049Z,16.10
2018-04-10T04:12:17.045Z,15.40
2018-04-10T04:13:17.032Z,14.80
2018-04-10T04:14:17.032Z,13.90
2018-04-10T04:15:17.029Z,14.90
2018-04-10T04:16:17.017Z,15.10
2018-04-10T04:17:17.008Z,14.20
2018-04-10T04:18:16.997Z,13.70
2018-04-10T04:19:17.006Z,13.20
2018-04-10T04:20:16.988Z,13.30
2018-04-10T04:21:16.987Z,14.50
2018-04-10T04:22:16.980Z,12.80
2018-04-10T04:23:16.974Z,12.20
2018-04-10T04:24:17.002Z,12.30
2018-04-10T04:25:16.957Z,15.30
2018-04-10T04:26:16.953Z,14.20
2018-04-10T04:27:16.947Z,13.50
2018-04-10T04:28:16.939Z,12.50
2018-04-10T04:29:16.935Z,13.30
2018-04-10T04:30:16.927Z,13.10
2018-04-10T04:31:16.927Z,11.20
2018-04-10T04:32:16.912Z,12.50
2018-04-10T04:33:16.909Z,12.20
2018-04-10T04:34:16.902Z,10.50
2018-04-10T04:35:16.900Z,11.80
2018-04-10T04:36:16.891Z,12.30
2018-04-10T04:37:16.889Z,10.60
2018-04-10T04:38:16.870Z,13.00
2018-04-10T04:39:16.885Z,12.50
2018-04-10T04:40:16.863Z,14.00
2018-04-10T04:41:16.863Z,12.40
2018-04-10T04:42:16.849Z,12.80
2018-04-10T04:43:16.864Z,13.00
2018-04-10T04:44:16.847Z,11.10
2018-04-10T04:45:16.836Z,16.50
2018-04-10T04:46:16.827Z,12.70
2018-04-10T04:47:16.819Z,14.20
2018-04-10T04:48:16.818Z,12.60
2018-04-10T04:49:16.822Z,12.60
2018-04-10T04:50:16.814Z,14.20
2018-04-10T04:51:16.797Z,11.40
2018-04-10T04:52:16.787Z,12.40
2018-04-10T04:53:16.785Z,12.40
2018-04-10T04:54:16.778Z,12.40
2018-04-10T04:55:16.774Z,13.10
2018-04-10T04:56:16.769Z,12.60
2018-04-10T04:57:16.770Z,14.40
2018-04-10T04:58:16.764Z,13.40
2018-04-10T04:59:16.739Z,10.90
2018-04-10T05:00:16.745Z,12.20
2018-04-10T05:01:16.735Z,11.30
2018-04-10T05:02:16.735Z,11.80
2018-04-10T05:03:16.726Z,13.00
2018-04-10T05:04:16.727Z,13.70
2018-04-10T05:05:16.719Z,13.20
2018-04-10T05:06:16.702Z,11.80
2018-04-10T05:07:16.717Z,11.50
2018-04-10T05:08:16.704Z,13.20
2018-04-10T05:09:16.696Z,12.90
2018-04-10T05:10:16.690Z,15.80
2018-04-10T05:11:16.681Z,14.50
2018-04-10T05:12:17.204Z,13.70
2018-04-10T05:13:16.666Z,12.70
2018-04-10T05:14:16.660Z,12.80
2018-04-10T05:15:16.655Z,15.00
2018-04-10T05:16:16.651Z,12.10
2018-04-10T05:17:16.644Z,12.50
2018-04-10T05:18:16.671Z,16.30
2018-04-10T05:19:16.665Z,12.60
2018-04-10T05:20:16.636Z,15.10
2018-04-10T05:21:16.631Z,15.00
2018-04-10T05:22:16.619Z,14.40
2018-04-10T05:23:16.613Z,14.30
2018-04-10T05:24:16.624Z,15.90
2018-04-10T05:25:16.608Z,16.20
2018-04-10T05:26:16.623Z,15.50
2018-04-10T05:27:16.586Z,13.80
2018-04-10T05:28:16.589Z,16.70
2018-04-10T05:29:16.587Z,16.60
2018-04-10T05:30:16.591Z,14.90
2018-04-10T05:31:16.580Z,14.80
2018-04-10T05:32:16.586Z,17.30
2018-04-10T05:33:16.571Z,15.40
2018-04-10T05:34:16.565Z,16.00
2018-04-10T05:35:16.553Z,14.30
2018-04-10T05:36:16.557Z,17.00
2018-04-10T05:37:16.550Z,13.90
2018-04-10T05:38:16.541Z,15.60
2018-04-10T05:39:16.543Z,15.80
2018-04-10T05:40:16.535Z,17.40
2018-04-10T05:41:16.556Z,15.50
2018-04-10T05:42:16.523Z,15.30
2018-04-10T05:43:16.526Z,15.70
2018-04-10T05:44:16.519Z,16.30
2018-04-10T05:45:16.513Z,16.80
2018-04-10T05:46:16.505Z,15.10
2018-04-10T05:47:16.501Z,15.80
2018-04-10T05:48:16.505Z,15.30
2018-04-10T05:49:16.489Z,15.80
2018-04-10T05:50:16.496Z,15.90
2018-04-10T05:51:16.486Z,16.60
2018-04-10T05:52:16.487Z,16.40
2018-04-10T05:53:16.483Z,17.60
2018-04-10T05:54:16.483Z,17.40
2018-04-10T05:55:16.477Z,17.70
2018-04-10T05:56:16.465Z,16.90
2018-04-10T05:57:16.462Z,16.50
2018-04-10T05:58:16.458Z,19.40
2018-04-10T05:59:16.456Z,16.60
2018-04-10T06:00:16.448Z,15.40
2018-04-10T06:01:16.444Z,19.80
2018-04-10T06:02:16.449Z,14.80
2018-04-10T06:03:16.458Z,16.60
2018-04-10T06:04:16.448Z,20.20
2018-04-10T06:05:16.433Z,16.00
2018-04-10T06:06:16.436Z,16.50
2018-04-10T06:07:16.443Z,16.10
2018-04-10T06:08:16.423Z,16.90
2018-04-10T06:09:16.420Z,16.10
2018-04-10T06:10:16.414Z,16.80
2018-04-10T06:11:16.413Z,18.00
2018-04-10T06:12:16.414Z,16.40
2018-04-10T06:13:16.408Z,17.30
2018-04-10T06:14:16.408Z,15.90
2018-04-10T06:15:16.402Z,17.60
2018-04-10T06:16:16.408Z,16.50
2018-04-10T06:17:16.429Z,17.00
2018-04-10T06:18:16.390Z,16.20
2018-04-10T06:19:16.401Z,16.10
2018-04-10T06:20:16.398Z,18.60
2018-04-10T06:21:16.392Z,18.10
2018-04-10T06:22:16.389Z,18.90
2018-04-10T06:23:16.384Z,17.50
2018-04-10T06:24:16.387Z,18.40
2018-04-10T06:25:16.378Z,16.90
2018-04-10T06:26:16.382Z,16.40
2018-04-10T06:27:16.370Z,18.00
2018-04-10T06:28:16.372Z,15.30
2018-04-10T06:29:16.363Z,16.10
2018-04-10T06:30:16.366Z,15.00
2018-04-10T06:31:16.358Z,17.30
2018-04-10T06:32:16.365Z,15.30
2018-04-10T06:33:16.350Z,14.50
2018-04-10T06:34:16.363Z,15.00
2018-04-10T06:35:16.366Z,18.20
2018-04-10T06:36:16.353Z,16.60
2018-04-10T06:37:16.367Z,13.80
2018-04-10T06:38:16.345Z,19.40
2018-04-10T06:39:16.363Z,15.50
2018-04-10T06:40:16.352Z,14.60
2018-04-10T06:41:16.343Z,16.70
2018-04-10T06:42:16.343Z,15.10
2018-04-10T06:43:16.339Z,14.40
2018-04-10T06:44:16.328Z,13.70
2018-04-10T06:45:16.330Z,13.90
2018-04-10T06:46:16.330Z,14.90
2018-04-10T06:47:16.334Z,14.30
2018-04-10T06:48:16.326Z,14.50
2018-04-10T06:49:16.327Z,13.20
2018-04-10T06:50:16.323Z,14.10
2018-04-10T06:51:16.320Z,16.60
2018-04-10T06:52:16.323Z,15.80
2018-04-10T06:53:16.323Z,15.70
2018-04-10T06:54:16.320Z,17.00
2018-04-10T06:55:16.341Z,14.70
2018-04-10T06:56:16.318Z,15.80
2018-04-10T06:57:16.315Z,15.00
2018-04-10T06:58:16.308Z,15.30
2018-04-10T06:59:16.307Z,15.60
2018-04-10T07:00:16.313Z,15.00
2018-04-10T07:01:16.307Z,15.40
2018-04-10T07:02:16.310Z,15.30
2018-04-10T07:03:16.316Z,14.80
2018-04-10T07:04:16.294Z,16.20
2018-04-10T07:05:16.311Z,14.90
2018-04-10T07:06:16.300Z,15.00
2018-04-10T07:07:16.311Z,15.30
2018-04-10T07:08:16.306Z,15.40
2018-04-10T07:09:16.299Z,15.00
2018-04-10T07:10:16.300Z,15.10
2018-04-10T07:11:16.329Z,15.20
2018-04-10T07:12:16.322Z,15.70
2018-04-10T07:13:16.326Z,15.00
2018-04-10T07:14:16.302Z,16.30
2018-04-10T07:15:16.310Z,16.80
2018-04-10T07:16:16.299Z,15.70
2018-04-10T07:17:16.295Z,14.70
2018-04-10T07:18:16.288Z,14.80
2018-04-10T07:19:16.326Z,14.60
2018-04-10T07:20:16.298Z,15.00
2018-04-10T07:21:16.297Z,14.90
2018-04-10T07:22:16.299Z,15.80
2018-04-10T07:23:16.307Z,14.70
2018-04-10T07:24:16.302Z,14.90
2018-04-10T07:25:16.294Z,14.40
2018-04-10T07:26:16.292Z,15.30
2018-04-10T07:27:16.303Z,14.80
2018-04-10T07:28:16.313Z,15.40
2018-04-10T07:29:16.295Z,13.90
2018-04-10T07:30:16.293Z,14.60
2018-04-10T07:31:16.296Z,15.10
2018-04-10T07:32:16.300Z,14.20
2018-04-10T07:33:16.302Z,15.60
2018-04-10T07:34:16.305Z,14.70
2018-04-10T07:35:16.308Z,15.00
2018-04-10T07:36:16.304Z,14.90
2018-04-10T07:37:16.308Z,14.70
2018-04-10T07:38:16.307Z,14.90
2018-04-10T07:39:16.299Z,14.80
2018-04-10T07:40:16.310Z,14.70
2018-04-10T07:41:16.352Z,14.80
2018-04-10T07:42:16.318Z,14.90
2018-04-10T07:43:16.375Z,14.10
2018-04-10T07:44:16.316Z,15.40
2018-04-10T07:45:16.332Z,13.90
2018-04-10T07:46:16.331Z,12.80
2018-04-10T07:47:16.328Z,13.90
2018-04-10T07:48:16.326Z,14.00
2018-04-10T07:49:16.342Z,14.80
2018-04-10T07:50:16.348Z,15.30
2018-04-10T07:51:16.365Z,13.00
2018-04-10T07:52:16.350Z,13.00
2018-04-10T07:53:16.361Z,13.30
2018-04-10T07:54:16.364Z,13.70
2018-04-10T07:55:16.365Z,12.70
2018-04-10T07:56:16.366Z,13.20
2018-04-10T07:57:16.373Z,12.40
2018-04-10T07:58:16.379Z,12.20
2018-04-10T07:59:16.383Z,12.30
2018-04-10T08:00:16.409Z,12.30
2018-04-10T08:01:16.400Z,12.70
2018-04-10T08:02:16.396Z,16.00
2018-04-10T08:03:16.415Z,11.50
2018-04-10T08:04:16.420Z,12.60
2018-04-10T08:05:16.415Z,12.00
2018-04-10T08:06:16.429Z,11.60
2018-04-10T08:07:16.440Z,11.80
2018-04-10T08:08:16.444Z,11.50
2018-04-10T08:09:16.492Z,12.70
2018-04-10T08:10:16.462Z,11.80
2018-04-10T08:11:16.461Z,11.50
2018-04-10T08:12:16.475Z,12.30
2018-04-10T08:13:16.488Z,13.20
2018-04-10T08:14:16.490Z,11.40
2018-04-10T08:15:16.518Z,10.80
2018-04-10T08:16:16.509Z,12.00
2018-04-10T08:17:16.518Z,11.40
2018-04-10T08:18:16.515Z,11.60
2018-04-10T08:19:16.533Z,11.00
2018-04-10T08:20:16.541Z,11.20
2018-04-10T08:21:16.543Z,11.00
2018-04-10T08:22:16.566Z,10.90
2018-04-10T08:23:16.559Z,10.50
2018-04-10T08:24:16.571Z,11.80
2018-04-10T08:25:16.595Z,11.20
2018-04-10T08:26:16.586Z,11.40
2018-04-10T08:27:16.603Z,11.30
2018-04-10T08:28:16.613Z,11.00
2018-04-10T08:29:16.617Z,12.20
2018-04-10T08:30:16.636Z,10.70
2018-04-10T08:31:16.645Z,11.50
2018-04-10T08:32:16.653Z,11.60
2018-04-10T08:33:16.651Z,10.70
2018-04-10T08:34:16.687Z,10.50
2018-04-10T08:35:16.693Z,10.90
2018-04-10T08:36:16.692Z,10.70
2018-04-10T08:37:16.703Z,10.70
2018-04-10T08:38:16.717Z,11.10
2018-04-10T08:39:16.780Z,11.10
2018-04-10T08:40:16.742Z,10.70
2018-04-10T08:41:16.753Z,10.70
2018-04-10T08:42:16.764Z,11.60
2018-04-10T08:43:16.778Z,11.20
2018-04-10T08:44:16.795Z,10.70
2018-04-10T08:45:16.802Z,12.70
2018-04-10T08:46:16.820Z,11.10
2018-04-10T08:47:16.834Z,12.40
2018-04-10T08:48:16.844Z,11.10
2018-04-10T08:49:16.877Z,10.90
2018-04-10T08:50:16.868Z,10.90
2018-04-10T08:51:16.882Z,12.10
2018-04-10T08:52:16.895Z,11.20
2018-04-10T08:53:16.912Z,12.20
2018-04-10T08:54:16.934Z,11.00
2018-04-10T08:55:16.934Z,12.10
2018-04-10T08:56:16.953Z,11.50
2018-04-10T08:57:17.050Z,11.50
2018-04-10T08:58:16.973Z,11.90
2018-04-10T08:59:16.980Z,12.00
2018-04-10T09:00:17.001Z,11.50
2018-04-10T09:01:17.022Z,13.00
2018-04-10T09:02:17.051Z,13.50
2018-04-10T09:03:17.128Z,10.50
2018-04-10T09:04:17.064Z,10.30
2018-04-10T09:05:17.078Z,11.80
2018-04-10T09:06:17.085Z,12.90
2018-04-10T09:07:17.096Z,11.70
2018-04-10T09:08:17.107Z,9.80
2018-04-10T09:09:17.175Z,11.10
2018-04-10T09:10:17.138Z,11.10
2018-04-10T09:11:17.161Z,11.60
2018-04-10T09:12:17.180Z,12.00
2018-04-10T09:13:17.186Z,11.50
2018-04-10T09:14:17.203Z,11.40
2018-04-10T09:15:17.220Z,11.50
2018-04-10T09:16:17.276Z,12.00
2018-04-10T09:17:17.244Z,11.80
2018-04-10T09:18:17.285Z,12.10
2018-04-10T09:19:17.274Z,11.50
2018-04-10T09:20:17.293Z,11.70
2018-04-10T09:21:17.316Z,13.40
2018-04-10T09:22:17.318Z,11.60
2018-04-10T09:23:17.339Z,11.40
2018-04-10T09:24:17.350Z,11.90
2018-04-10T09:25:17.363Z,12.40
2018-04-10T09:26:17.374Z,12.10
2018-04-10T09:27:17.418Z,13.50
2018-04-10T09:28:17.430Z,12.90
2018-04-10T09:29:17.421Z,12.50
2018-04-10T09:30:17.442Z,12.30
2018-04-10T09:31:17.456Z,12.20
2018-04-10T09:32:17.475Z,11.70
2018-04-10T09:33:17.481Z,12.20
2018-04-10T09:34:17.499Z,12.00
2018-04-10T09:35:17.520Z,11.40
2018-04-10T09:36:17.529Z,12.60
2018-04-10T09:37:17.544Z,12.20
2018-04-10T09:38:17.562Z,11.50
2018-04-10T09:39:17.574Z,12.10
2018-04-10T09:41:17.617Z,12.50
2018-04-10T09:42:17.622Z,12.40
2018-04-10T09:43:17.624Z,13.20
2018-04-10T09:44:17.647Z,13.30
2018-04-10T09:45:17.665Z,12.40
2018-04-10T09:46:17.665Z,13.00
2018-04-10T09:47:17.678Z,14.70
2018-04-10T09:48:17.684Z,14.60
2018-04-10T09:49:17.691Z,12.80
2018-04-10T09:50:17.713Z,12.80
2018-04-10T09:51:17.742Z,12.70
2018-04-10T09:52:17.734Z,12.90
2018-04-10T09:53:17.744Z,12.90
2018-04-10T09:54:17.757Z,12.80
2018-04-10T09:55:17.764Z,13.30
2018-04-10T09:56:17.782Z,12.80
2018-04-10T09:57:17.797Z,12.40
2018-04-10T09:58:17.798Z,13.80
2018-04-10T09:59:17.817Z,12.40
2018-04-10T10:00:17.830Z,11.90
2018-04-10T10:01:17.832Z,12.40
2018-04-10T10:02:17.852Z,15.30
2018-04-10T10:03:17.864Z,12.20
2018-04-10T10:04:17.876Z,11.80
2018-04-10T10:05:17.886Z,11.90
2018-04-10T10:06:17.900Z,11.70
2018-04-10T10:07:17.919Z,13.50
2018-04-10T10:08:17.926Z,11.50
2018-04-10T10:09:17.941Z,12.80
2018-04-10T10:10:17.991Z,12.10
2018-04-10T10:11:17.971Z,12.40
2018-04-10T10:12:17.991Z,11.50
2018-04-10T10:13:17.997Z,11.70
2018-04-10T10:14:18.009Z,11.80
2018-04-10T10:15:18.027Z,11.30
2018-04-10T10:16:18.047Z,11.20
2018-04-10T10:17:18.064Z,11.30
2018-04-10T10:18:18.083Z,11.30
2018-04-10T10:19:18.089Z,10.70
2018-04-10T10:20:18.108Z,14.70
2018-04-10T10:21:18.124Z,11.00
2018-04-10T10:22:18.132Z,11.30
2018-04-10T10:23:18.153Z,10.60
2018-04-10T10:24:18.164Z,9.90
2018-04-10T10:25:18.186Z,10.10
2018-04-10T10:26:18.192Z,10.80
2018-04-10T10:27:18.215Z,10.30
2018-04-10T10:28:18.227Z,11.00
2018-04-10T10:29:18.252Z,10.60
2018-04-10T10:30:18.270Z,10.90
2018-04-10T10:31:18.280Z,10.60
2018-04-10T10:32:18.322Z,10.30
2018-04-10T10:33:18.316Z,9.60
2018-04-10T10:34:18.333Z,10.00
2018-04-10T10:35:18.363Z,11.40
2018-04-10T10:36:18.377Z,10.70
2018-04-10T10:37:18.403Z,9.80
2018-04-10T10:38:18.403Z,10.60
2018-04-10T10:39:18.432Z,10.70
2018-04-10T10:40:18.440Z,9.80
2018-04-10T10:41:18.462Z,10.40
2018-04-10T10:42:18.471Z,10.80
2018-04-10T10:43:18.489Z,10.60
2018-04-10T10:44:18.507Z,10.20
2018-04-10T10:45:18.524Z,10.50
2018-04-10T10:46:18.537Z,10.20
2018-04-10T10:47:18.563Z,8.70
2018-04-10T10:48:18.578Z,9.40
2018-04-10T10:49:18.595Z,7.50
2018-04-10T10:50:18.615Z,7.10
2018-04-10T10:51:18.632Z,7.70
2018-04-10T10:52:18.653Z,8.60
2018-04-10T10:53:18.669Z,7.10
2018-04-10T10:54:18.702Z,6.70
2018-04-10T10:55:18.704Z,7.80
2018-04-10T10:56:18.720Z,8.50
2018-04-10T10:57:18.784Z,9.10
2018-04-10T10:58:18.754Z,8.80
2018-04-10T10:59:18.773Z,8.70
2018-04-10T11:00:18.794Z,9.10
2018-04-10T11:01:18.858Z,9.20
2018-04-10T11:02:18.832Z,9.00
2018-04-10T11:03:18.850Z,9.70
2018-04-10T11:04:18.877Z,9.60
2018-04-10T11:05:18.889Z,9.70
2018-04-10T11:06:18.906Z,7.00
2018-04-10T11:07:18.924Z,6.40
2018-04-10T11:08:18.943Z,6.60
2018-04-10T11:09:18.966Z,7.30
2018-04-10T11:10:18.993Z,9.20
2018-04-10T11:11:18.999Z,7.60
2018-04-10T11:12:19.018Z,7.50
2018-04-10T11:13:19.025Z,6.10
2018-04-10T11:14:19.051Z,6.70
2018-04-10T11:15:19.069Z,7.10
2018-04-10T11:16:19.086Z,6.70
2018-04-10T11:17:19.107Z,8.00
2018-04-10T11:18:19.115Z,7.80
2018-04-10T11:19:19.139Z,8.90
2018-04-10T11:20:19.162Z,8.80
2018-04-10T11:21:19.178Z,8.10
2018-04-10T11:22:19.194Z,8.30
2018-04-10T11:23:19.209Z,8.00
2018-04-10T11:24:19.230Z,8.40
2018-04-10T11:25:19.249Z,8.70
2018-04-10T11:26:19.263Z,8.00
2018-04-10T11:27:19.299Z,8.90
2018-04-10T11:28:19.303Z,8.40
2018-04-10T11:29:19.319Z,8.70
2018-04-10T11:30:19.351Z,8.50
2018-04-10T11:31:19.352Z,9.80
2018-04-10T11:32:19.376Z,8.40
2018-04-10T11:33:19.404Z,8.00
2018-04-10T11:34:19.415Z,7.80
2018-04-10T11:35:19.431Z,8.40
2018-04-10T11:36:19.444Z,8.20
2018-04-10T11:37:19.466Z,8.00
2018-04-10T11:38:19.483Z,8.10
2018-04-10T11:39:19.515Z,9.70
2018-04-10T11:40:19.527Z,7.90
2018-04-10T11:41:19.550Z,6.50
2018-04-10T11:42:19.564Z,7.50
2018-04-10T11:43:19.580Z,8.00
2018-04-10T11:44:19.592Z,7.60
2018-04-10T11:45:19.632Z,7.90
2018-04-10T11:46:19.630Z,7.70
2018-04-10T11:47:19.646Z,7.60
2018-04-10T11:48:19.675Z,7.80
2018-04-10T11:49:19.685Z,7.00
2018-04-10T11:50:19.706Z,7.30
2018-04-10T11:51:19.730Z,6.40
2018-04-10T11:52:19.738Z,6.60
2018-04-10T11:53:19.749Z,5.70
2018-04-10T11:54:19.775Z,6.30
2018-04-10T11:55:19.809Z,6.30
2018-04-10T11:56:19.808Z,7.50
2018-04-10T11:57:19.842Z,5.80
2018-04-10T11:58:19.846Z,6.10
2018-04-10T11:59:19.880Z,5.90
2018-04-10T12:00:19.890Z,6.20
2018-04-10T12:01:19.899Z,6.20
2018-04-10T12:02:19.915Z,6.00
2018-04-10T12:03:19.937Z,6.20
2018-04-10T12:04:19.953Z,6.20
2018-04-10T12:05:19.975Z,5.30
2018-04-10T12:06:20.005Z,6.60
2018-04-10T12:07:20.010Z,6.50
2018-04-10T12:08:20.026Z,6.60
2018-04-10T12:09:20.029Z,6.20
2018-04-10T12:10:20.070Z,5.80
2018-04-10T12:11:20.080Z,5.90
2018-04-10T12:12:20.093Z,5.90
2018-04-10T12:13:20.116Z,5.50
2018-04-10T12:14:20.129Z,7.20
2018-04-10T12:15:20.146Z,5.20
2018-04-10T12:16:20.163Z,5.80
2018-04-10T12:17:20.192Z,5.40
2018-04-10T12:18:20.201Z,4.80
2018-04-10T12:19:20.220Z,8.10
2018-04-10T12:20:20.244Z,6.70
2018-04-10T12:21:20.257Z,6.30
2018-04-10T12:22:20.280Z,5.60
2018-04-10T12:23:20.295Z,5.90
2018-04-10T12:24:20.341Z,4.40
2018-04-10T12:25:20.321Z,4.30
2018-04-10T12:26:20.336Z,5.00
2018-04-10T12:27:20.360Z,5.80
2018-04-10T12:28:20.376Z,5.90
2018-04-10T12:29:20.383Z,5.70
2018-04-10T12:30:20.405Z,5.90
2018-04-10T12:31:20.410Z,4.90
2018-04-10T12:32:20.426Z,4.50
2018-04-10T12:33:20.457Z,3.50
2018-04-10T12:34:20.443Z,3.80
2018-04-10T12:35:20.463Z,4.10
2018-04-10T12:36:20.471Z,5.40
2018-04-10T12:37:20.485Z,3.20
2018-04-10T12:38:20.479Z,3.10
2018-04-10T12:39:20.499Z,3.30
2018-04-10T12:40:20.514Z,3.70
2018-04-10T12:41:20.517Z,3.50
2018-04-10T12:42:20.525Z,3.20
2018-04-10T12:43:20.545Z,3.40
2018-04-10T12:44:20.543Z,5.70
2018-04-10T12:45:20.559Z,3.00
2018-04-10T12:46:20.556Z,4.80
2018-04-10T12:47:20.591Z,4.60
2018-04-10T12:48:20.595Z,3.10
2018-04-10T12:49:20.584Z,3.70
2018-04-10T12:50:20.589Z,6.90
2018-04-10T12:51:20.601Z,7.70
2018-04-10T12:52:20.609Z,3.10
2018-04-10T12:53:20.608Z,3.90
2018-04-10T12:54:20.618Z,3.20
2018-04-10T12:55:20.623Z,3.10
2018-04-10T12:56:20.654Z,3.40
2018-04-10T12:57:20.637Z,3.90
2018-04-10T12:58:20.647Z,3.40
2018-04-10T12:59:20.647Z,4.80
2018-04-10T13:00:20.655Z,3.10
2018-04-10T13:01:20.655Z,4.10
2018-04-10T13:02:20.699Z,3.10
2018-04-10T13:03:20.665Z,3.10
2018-04-10T13:04:20.682Z,2.70
2018-04-10T13:05:20.671Z,2.50
2018-04-10T13:06:20.692Z,2.90
2018-04-10T13:07:20.689Z,3.50
2018-04-10T13:08:20.693Z,3.00
2018-04-10T13:09:20.699Z,2.20
2018-04-10T13:10:20.699Z,3.00
2018-04-10T13:11:20.720Z,2.60
2018-04-10T13:12:20.713Z,3.20
2018-04-10T13:13:20.711Z,2.20
2018-04-10T13:14:20.715Z,3.60
2018-04-10T13:15:20.721Z,2.30
2018-04-10T13:16:20.727Z,2.80
2018-04-10T13:17:20.737Z,3.30
2018-04-10T13:18:20.736Z,3.10
2018-04-10T13:19:20.735Z,2.10
2018-04-10T13:20:20.742Z,2.30
2018-04-10T13:21:20.750Z,2.60
2018-04-10T13:22:20.752Z,4.00
2018-04-10T13:23:20.745Z,2.60
2018-04-10T13:24:20.764Z,2.60
2018-04-10T13:25:20.764Z,2.90
2018-04-10T13:26:20.780Z,2.50
2018-04-10T13:27:20.764Z,2.50
2018-04-10T13:28:20.775Z,3.30
2018-04-10T13:29:20.815Z,2.30
2018-04-10T13:30:20.782Z,2.40
2018-04-10T13:31:20.782Z,2.60
2018-04-10T13:32:20.791Z,2.20
2018-04-10T13:33:20.780Z,3.20
2018-04-10T13:34:20.791Z,3.30
2018-04-10T13:35:20.791Z,3.30
2018-04-10T13:36:20.797Z,3.00